createdAt,value
2023-02-12T00:00:07.734Z,13.43
2023-02-12T00:02:42.276Z,11.33
2023-02-12T00:05:09.557Z,10.87
2023-02-12T00:07:36.805Z,8.30
2023-02-12T00:10:05.784Z,9.10
2023-02-12T00:12:33.017Z,11.43
2023-02-12T00:15:00.285Z,8.40
2023-02-12T00:17:28.430Z,8.97
2023-02-12T00:19:55.862Z,9.33
2023-02-12T00:22:23.132Z,8.23
2023-02-12T00:24:50.412Z,8.63
2023-02-12T00:27:19.103Z,8.90
2023-02-12T00:29:46.327Z,9.03
2023-02-12T00:32:31.844Z,6.93
2023-02-12T00:34:59.159Z,6.23
2023-02-12T00:37:26.362Z,6.23
2023-02-12T00:39:54.390Z,4.47
2023-02-12T00:42:41.377Z,8.57
2023-02-12T00:48:39.953Z,6.40
2023-02-12T00:51:07.373Z,6.23
2023-02-12T00:53:34.784Z,5.73
2023-02-12T00:56:02.135Z,5.63
2023-02-12T00:58:29.543Z,5.37
2023-02-12T01:00:56.805Z,6.97
2023-02-12T01:03:24.204Z,9.67
2023-02-12T01:05:54.511Z,7.60
2023-02-12T01:08:22.167Z,6.20
2023-02-12T01:10:56.398Z,6.23
2023-02-12T01:13:23.690Z,5.43
2023-02-12T01:15:50.921Z,7.20
2023-02-12T01:18:22.033Z,7.73
2023-02-12T01:20:49.381Z,6.10
2023-02-12T01:23:18.139Z,6.17
2023-02-12T01:25:45.380Z,5.00
2023-02-12T01:28:33.340Z,5.77
2023-02-12T01:31:14.012Z,7.73
2023-02-12T01:33:41.407Z,7.00
2023-02-12T01:36:09.906Z,3.90
2023-02-12T01:38:38.668Z,6.10
2023-02-12T01:41:06.700Z,5.43
2023-02-12T01:43:34.479Z,3.97
2023-02-12T01:46:11.310Z,6.27
2023-02-12T01:48:43.276Z,7.50
2023-02-12T01:51:11.761Z,5.27
2023-02-12T01:53:42.290Z,9.03
2023-02-12T01:56:09.835Z,8.13
2023-02-12T02:01:44.645Z,4.83
2023-02-12T02:04:15.368Z,5.03
2023-02-12T02:06:48.115Z,4.77
2023-02-12T02:09:17.534Z,3.83
2023-02-12T02:11:44.901Z,5.50
2023-02-12T02:14:12.148Z,4.90
2023-02-12T02:19:36.294Z,3.37
2023-02-12T02:22:15.086Z,4.90
2023-02-12T02:24:57.186Z,2.87
2023-02-12T02:27:28.924Z,2.47
2023-02-12T02:30:14.170Z,2.90
2023-02-12T02:36:31.259Z,2.60
2023-02-12T02:39:04.053Z,2.47
2023-02-12T02:41:34.757Z,2.40
2023-02-12T02:44:03.108Z,2.43
2023-02-12T02:46:31.905Z,2.70
2023-02-12T02:49:00.508Z,3.40
2023-02-12T02:51:45.924Z,2.67
2023-02-12T02:54:17.308Z,3.50
2023-02-12T02:56:46.101Z,3.50
2023-02-12T02:59:15.566Z,3.77
2023-02-12T03:05:32.213Z,3.50
2023-02-12T03:08:00.894Z,3.37
2023-02-12T03:10:31.243Z,3.50
2023-02-12T03:13:00.662Z,5.80
2023-02-12T03:15:31.268Z,2.60
2023-02-12T03:17:59.349Z,2.87
2023-02-12T03:23:18.098Z,3.10
2023-02-12T03:25:50.366Z,3.43
2023-02-12T03:28:19.992Z,2.97
2023-02-12T03:37:06.213Z,4.73
2023-02-12T03:39:39.989Z,2.70
2023-02-12T03:42:11.133Z,4.63
2023-02-12T03:44:44.978Z,3.50
2023-02-12T03:47:17.002Z,3.20
2023-02-12T03:52:34.494Z,3.23
2023-02-12T03:55:01.968Z,7.37
2023-02-12T03:57:33.778Z,4.03
2023-02-12T04:03:56.465Z,4.60
2023-02-12T04:06:25.017Z,3.87
2023-02-12T04:08:53.016Z,5.37
2023-02-12T04:11:24.531Z,3.50
2023-02-12T04:13:59.799Z,2.97
2023-02-12T04:16:30.405Z,3.80
2023-02-12T04:19:15.800Z,4.60
2023-02-12T04:21:48.846Z,4.17
2023-02-12T04:24:18.833Z,3.10
2023-02-12T04:26:50.018Z,3.80
2023-02-12T04:29:49.365Z,2.87
2023-02-12T04:35:33.019Z,5.20
2023-02-12T04:38:03.022Z,6.07
2023-02-12T04:40:30.699Z,3.53
2023-02-12T04:42:57.911Z,4.10
2023-02-12T04:45:27.456Z,3.47
2023-02-12T04:47:55.023Z,3.63
2023-02-12T04:50:25.753Z,4.00
2023-02-12T04:52:53.144Z,3.77
2023-02-12T04:55:20.423Z,3.77
2023-02-12T04:57:48.484Z,3.47
2023-02-12T05:03:27.578Z,3.00
2023-02-12T05:05:55.182Z,3.57
2023-02-12T05:08:22.672Z,4.50
2023-02-12T05:10:49.969Z,4.37
2023-02-12T05:13:17.323Z,3.43
2023-02-12T05:15:46.049Z,3.33
2023-02-12T05:18:35.009Z,3.30
2023-02-12T05:21:03.152Z,7.07
2023-02-12T05:23:31.668Z,3.50
2023-02-12T05:25:59.588Z,3.40
2023-02-12T05:35:38.564Z,5.77
2023-02-12T05:38:05.793Z,5.03
2023-02-12T05:40:33.119Z,4.77
2023-02-12T05:43:00.388Z,5.00
2023-02-12T05:45:27.652Z,5.87
2023-02-12T05:50:38.673Z,6.43
2023-02-12T05:53:08.921Z,3.83
2023-02-12T05:55:36.188Z,6.70
2023-02-12T05:58:18.517Z,6.47
2023-02-12T06:04:33.476Z,6.73
2023-02-12T06:07:02.148Z,7.17
2023-02-12T06:09:29.384Z,7.00
2023-02-12T06:11:56.626Z,7.50
2023-02-12T06:14:23.995Z,5.97
2023-02-12T06:16:52.252Z,6.37
2023-02-12T06:19:19.859Z,6.13
2023-02-12T06:21:47.161Z,6.63
2023-02-12T06:24:16.755Z,6.40
2023-02-12T06:26:44.102Z,7.83
2023-02-12T06:29:11.348Z,8.70
2023-02-12T06:31:38.719Z,9.80
2023-02-12T06:34:26.360Z,7.77
2023-02-12T06:39:50.031Z,6.70
2023-02-12T06:42:17.314Z,6.90
2023-02-12T06:44:44.536Z,6.77
2023-02-12T06:47:12.133Z,7.63
2023-02-12T06:49:51.663Z,7.40
2023-02-12T06:52:19.014Z,6.70
2023-02-12T06:54:46.382Z,9.37
2023-02-12T06:57:15.066Z,10.40
2023-02-12T06:59:42.327Z,9.63
2023-02-12T07:02:10.067Z,8.67
2023-02-12T07:04:38.663Z,6.67
2023-02-12T07:07:06.310Z,9.77
2023-02-12T07:09:33.945Z,8.93
2023-02-12T07:12:01.279Z,7.43
2023-02-12T07:18:23.311Z,8.10
2023-02-12T07:20:51.932Z,9.17
2023-02-12T07:23:19.481Z,9.63
2023-02-12T07:25:55.853Z,12.53
2023-02-12T07:28:23.464Z,9.00
2023-02-12T07:30:51.036Z,8.33
2023-02-12T07:33:18.622Z,10.63
2023-02-12T07:35:46.260Z,9.10
2023-02-12T07:38:15.351Z,8.53
2023-02-12T07:40:42.804Z,9.67
2023-02-12T07:43:10.072Z,9.03
2023-02-12T07:45:39.866Z,14.20
2023-02-12T07:52:01.319Z,12.13
2023-02-12T07:54:30.057Z,10.17
2023-02-12T07:56:57.422Z,9.47
2023-02-12T07:59:37.089Z,9.90
2023-02-12T08:02:26.351Z,8.53
2023-02-12T08:04:56.972Z,8.50
2023-02-12T08:07:25.064Z,9.87
2023-02-12T08:09:53.702Z,7.73
2023-02-12T08:12:20.959Z,15.73
2023-02-12T08:14:48.213Z,10.07
2023-02-12T08:17:15.465Z,10.03
2023-02-12T08:19:42.717Z,11.47
2023-02-12T08:22:10.001Z,12.83
2023-02-12T08:24:37.305Z,14.57
2023-02-12T08:27:06.067Z,11.00
2023-02-12T08:29:33.274Z,10.47
2023-02-12T08:32:01.588Z,10.53
2023-02-12T08:34:30.113Z,12.00
2023-02-12T08:36:57.972Z,12.43
2023-02-12T08:39:26.359Z,9.50
2023-02-12T08:41:55.014Z,11.00
2023-02-12T08:44:23.751Z,9.57
2023-02-12T08:46:51.599Z,12.17
2023-02-12T08:49:19.469Z,11.80
2023-02-12T08:51:47.429Z,15.13
2023-02-12T08:54:15.643Z,14.67
2023-02-12T08:56:43.102Z,12.80
2023-02-12T08:59:11.640Z,11.47
2023-02-12T09:01:40.593Z,11.27
2023-02-12T09:04:08.012Z,11.60
2023-02-12T09:06:36.365Z,11.10
2023-02-12T09:09:04.070Z,15.47
2023-02-12T09:11:31.509Z,13.07
2023-02-12T09:13:59.614Z,13.20
2023-02-12T09:16:27.364Z,14.80
2023-02-12T09:18:56.417Z,11.13
2023-02-12T09:21:24.190Z,9.53
2023-02-12T09:23:52.019Z,13.20
2023-02-12T09:26:20.953Z,10.97
2023-02-12T09:28:48.572Z,10.27
2023-02-12T09:31:17.579Z,12.07
2023-02-12T09:33:44.961Z,14.77
2023-02-12T09:36:15.537Z,10.27
2023-02-12T09:38:43.521Z,10.47
2023-02-12T09:41:28.755Z,10.87
2023-02-12T09:43:59.124Z,10.70
2023-02-12T09:46:29.006Z,8.87
2023-02-12T09:49:01.798Z,10.70
2023-02-12T09:51:31.455Z,10.27
2023-02-12T09:54:02.446Z,9.93
2023-02-12T09:56:30.117Z,13.90
2023-02-12T09:58:59.388Z,12.90
2023-02-12T10:01:28.555Z,11.03
2023-02-12T10:03:56.480Z,12.13
2023-02-12T10:06:26.033Z,11.43
2023-02-12T10:08:59.893Z,10.90
2023-02-12T10:11:36.932Z,14.23
2023-02-12T10:17:51.009Z,16.10
2023-02-12T10:20:42.651Z,11.70
2023-02-12T10:23:17.258Z,11.33
2023-02-12T10:25:50.219Z,13.03
2023-02-12T10:28:19.964Z,13.37
2023-02-12T10:30:49.731Z,12.97
2023-02-12T10:33:19.946Z,11.83
2023-02-12T10:35:50.725Z,12.10
2023-02-12T10:38:20.199Z,12.27
2023-02-12T10:40:48.870Z,10.90
2023-02-12T10:47:15.784Z,10.30
2023-02-12T10:49:43.094Z,9.50
2023-02-12T10:52:13.406Z,10.10
2023-02-12T10:54:42.011Z,10.77
2023-02-12T10:57:16.123Z,9.97
2023-02-12T10:59:44.206Z,11.83
2023-02-12T11:05:01.636Z,9.10
2023-02-12T11:07:29.431Z,13.90
2023-02-12T11:09:57.876Z,11.90
2023-02-12T11:16:21.574Z,10.60
2023-02-12T11:18:58.044Z,11.60
2023-02-12T11:21:25.370Z,10.37
2023-02-12T11:23:52.610Z,10.07
2023-02-12T11:26:24.663Z,11.67
2023-02-12T11:28:54.407Z,11.50
2023-02-12T11:34:10.324Z,11.13
2023-02-12T11:36:39.089Z,13.27
2023-02-12T11:39:06.921Z,10.90
2023-02-12T11:48:46.685Z,9.60
2023-02-12T11:51:20.743Z,9.83
2023-02-12T11:53:49.943Z,10.70
2023-02-12T11:56:17.397Z,10.07
2023-02-12T11:58:46.868Z,12.97
2023-02-12T12:04:05.464Z,14.80
2023-02-12T12:06:36.943Z,12.53
2023-02-12T12:09:06.299Z,10.97
2023-02-12T12:18:04.909Z,8.90
2023-02-12T12:20:36.181Z,7.63
2023-02-12T12:23:07.204Z,10.07
2023-02-12T12:25:37.102Z,11.00
2023-02-12T12:28:07.655Z,10.50
2023-02-12T12:30:50.180Z,10.30
2023-02-12T12:33:20.268Z,11.03
2023-02-12T12:35:54.186Z,11.80
2023-02-12T12:38:27.908Z,10.10
2023-02-12T12:40:59.876Z,10.23
2023-02-12T12:43:32.528Z,10.17
2023-02-12T12:46:11.401Z,11.97
2023-02-12T12:48:49.157Z,14.00
2023-02-12T12:51:22.759Z,8.90
2023-02-12T12:53:56.707Z,13.10
2023-02-12T12:56:36.179Z,9.70
2023-02-12T12:59:21.986Z,10.50
2023-02-12T13:01:55.250Z,11.00
2023-02-12T13:04:46.924Z,10.03
2023-02-12T13:07:19.472Z,10.70
2023-02-12T13:09:53.279Z,9.97
2023-02-12T13:12:29.322Z,11.00
2023-02-12T13:14:59.417Z,10.93
2023-02-12T13:17:29.812Z,11.13
2023-02-12T13:20:04.849Z,12.83
2023-02-12T13:22:38.084Z,14.03
2023-02-12T13:25:14.631Z,12.47
2023-02-12T13:27:43.270Z,11.00
2023-02-12T13:30:18.823Z,11.43
2023-02-12T13:32:48.238Z,11.17
2023-02-12T13:35:16.949Z,11.77
2023-02-12T13:37:45.834Z,11.90
2023-02-12T13:40:17.233Z,14.73
2023-02-12T13:42:47.919Z,12.97
2023-02-12T13:45:25.589Z,12.57
2023-02-12T13:48:00.448Z,12.83
2023-02-12T13:50:35.785Z,13.83
2023-02-12T13:53:05.070Z,14.03
2023-02-12T13:55:34.684Z,14.63
2023-02-12T13:58:20.435Z,13.13
2023-02-12T14:01:01.021Z,15.63
2023-02-12T14:03:29.620Z,14.00
2023-02-12T14:06:13.429Z,16.70
2023-02-12T14:08:41.834Z,16.27
2023-02-12T14:11:11.941Z,16.80
2023-02-12T14:13:47.610Z,14.80
2023-02-12T14:16:35.727Z,10.97
2023-02-12T14:19:21.738Z,12.27
2023-02-12T14:21:49.160Z,11.83
2023-02-12T14:24:46.977Z,10.93
2023-02-12T14:27:21.649Z,11.80
2023-02-12T14:30:01.359Z,9.50
2023-02-12T14:32:52.849Z,8.70
2023-02-12T14:35:33.189Z,10.83
2023-02-12T14:38:01.175Z,15.30
2023-02-12T14:40:46.415Z,14.17
2023-02-12T14:43:26.705Z,12.73
2023-02-12T14:48:48.833Z,17.33
2023-02-12T14:51:18.276Z,17.83
2023-02-12T14:53:47.554Z,18.90
2023-02-12T14:56:15.637Z,17.30
2023-02-12T14:58:45.971Z,14.10
2023-02-12T15:01:33.271Z,17.07
2023-02-12T15:04:17.582Z,23.57
2023-02-12T15:06:55.914Z,18.10
2023-02-12T15:09:27.245Z,15.23
2023-02-12T15:11:59.225Z,18.90
2023-02-12T15:14:31.613Z,20.37
2023-02-12T15:17:00.177Z,16.13
2023-02-12T15:19:35.229Z,21.27
2023-02-12T15:22:02.464Z,20.23
2023-02-12T15:24:30.034Z,20.53
2023-02-12T15:27:00.030Z,21.27
2023-02-12T15:29:30.142Z,18.93
2023-02-12T15:32:01.477Z,19.13
2023-02-12T15:34:31.136Z,23.27
2023-02-12T15:36:59.781Z,20.10
2023-02-12T15:39:27.501Z,18.20
2023-02-12T15:42:02.332Z,22.00
2023-02-12T15:44:32.538Z,21.13
2023-02-12T15:47:04.422Z,21.03
2023-02-12T15:49:33.375Z,20.80
2023-02-12T15:52:02.339Z,27.43
2023-02-12T15:54:30.234Z,23.90
2023-02-12T15:56:57.543Z,24.60
2023-02-12T15:59:27.271Z,22.77
2023-02-12T16:02:00.184Z,20.30
2023-02-12T16:04:30.143Z,23.13
2023-02-12T16:06:58.178Z,24.67
2023-02-12T16:09:28.409Z,18.27
2023-02-12T16:11:56.557Z,20.30
2023-02-12T16:14:25.561Z,20.13
2023-02-12T16:16:53.959Z,20.83
2023-02-12T16:19:23.876Z,21.27
2023-02-12T16:21:52.698Z,22.30
2023-02-12T16:24:26.297Z,19.50
2023-02-12T16:26:53.620Z,20.40
2023-02-12T16:29:21.248Z,22.83
2023-02-12T16:31:56.767Z,21.87
2023-02-12T16:34:34.195Z,22.60
2023-02-12T16:37:01.981Z,25.60
2023-02-12T16:39:47.834Z,23.73
2023-02-12T16:42:16.731Z,25.20
2023-02-12T16:44:43.951Z,23.20
2023-02-12T16:47:20.039Z,23.77
2023-02-12T16:49:54.877Z,22.10
2023-02-12T16:52:26.712Z,28.20
2023-02-12T16:54:54.614Z,21.17
2023-02-12T16:57:21.867Z,23.43
2023-02-12T16:59:49.223Z,19.30
2023-02-12T17:02:16.554Z,23.97
2023-02-12T17:04:44.100Z,23.83
2023-02-12T17:07:18.483Z,22.37
2023-02-12T17:09:45.743Z,22.27
2023-02-12T17:12:13.089Z,24.60
2023-02-12T17:14:40.302Z,28.67
2023-02-12T17:17:07.840Z,25.17
2023-02-12T17:19:35.399Z,26.40
2023-02-12T17:22:03.059Z,24.67
2023-02-12T17:24:32.476Z,23.60
2023-02-12T17:26:59.765Z,29.30
2023-02-12T17:29:27.174Z,29.77
2023-02-12T17:31:54.580Z,27.63
2023-02-12T17:34:22.004Z,27.33
2023-02-12T17:40:38.893Z,24.80
2023-02-12T17:43:06.812Z,24.97
2023-02-12T17:45:34.146Z,30.87
2023-02-12T17:48:01.462Z,28.73
2023-02-12T17:50:28.739Z,26.70
2023-02-12T17:52:55.950Z,23.17
2023-02-12T17:55:23.220Z,69.73
2023-02-12T17:57:55.552Z,53.37
2023-02-12T18:00:23.236Z,59.70
2023-02-12T18:02:50.730Z,28.97
2023-02-12T18:05:18.137Z,26.53
2023-02-12T18:07:45.434Z,31.03
2023-02-12T18:10:12.865Z,32.63
2023-02-12T18:12:40.543Z,28.67
2023-02-12T18:15:09.981Z,33.17
2023-02-12T18:17:37.423Z,28.17
2023-02-12T18:20:05.164Z,30.87
2023-02-12T18:22:33.373Z,28.93
2023-02-12T18:25:00.614Z,29.80
2023-02-12T18:27:27.915Z,29.07
2023-02-12T18:29:55.193Z,24.80
2023-02-12T18:32:23.877Z,27.43
2023-02-12T18:34:51.132Z,30.10
2023-02-12T18:37:18.328Z,30.17
2023-02-12T18:39:45.647Z,27.33
2023-02-12T18:42:12.895Z,31.77
2023-02-12T18:44:40.255Z,27.57
2023-02-12T18:47:07.585Z,21.23
2023-02-12T18:49:36.746Z,25.93
2023-02-12T18:52:04.030Z,27.67
2023-02-12T18:54:31.360Z,24.23
2023-02-12T18:56:58.621Z,22.97
2023-02-12T18:59:27.323Z,26.10
2023-02-12T19:01:55.073Z,22.13
2023-02-12T19:04:23.625Z,26.73
2023-02-12T19:06:53.340Z,26.00
2023-02-12T19:09:21.503Z,26.40
2023-02-12T19:11:49.710Z,39.13
2023-02-12T19:14:18.129Z,32.80
2023-02-12T19:16:45.859Z,25.60
2023-02-12T19:19:13.467Z,30.83
2023-02-12T19:21:41.189Z,24.23
2023-02-12T19:24:11.863Z,28.33
2023-02-12T19:26:39.275Z,23.20
2023-02-12T19:29:06.696Z,23.33
2023-02-12T19:31:35.230Z,30.47
2023-02-12T19:34:03.470Z,28.13
2023-02-12T19:36:31.739Z,28.00
2023-02-12T19:38:59.450Z,29.77
2023-02-12T19:41:29.002Z,30.67
2023-02-12T19:43:56.809Z,29.13
2023-02-12T19:46:24.684Z,31.70
2023-02-12T19:48:55.560Z,26.00
2023-02-12T19:51:23.204Z,30.10
2023-02-12T19:53:50.469Z,32.63
2023-02-12T19:56:18.330Z,31.43
2023-02-12T19:58:46.937Z,29.03
2023-02-12T20:01:15.207Z,27.67
2023-02-12T20:03:42.771Z,28.83
2023-02-12T20:06:10.689Z,29.60
2023-02-12T20:08:38.167Z,27.70
2023-02-12T20:11:06.139Z,30.00
2023-02-12T20:13:33.422Z,20.97
2023-02-12T20:16:03.425Z,30.13
2023-02-12T20:18:30.847Z,28.07
2023-02-12T20:20:58.191Z,28.90
2023-02-12T20:23:25.564Z,23.03
2023-02-12T20:25:52.863Z,26.83
2023-02-12T20:28:20.143Z,25.53
2023-02-12T20:30:47.428Z,28.17
2023-02-12T20:33:16.112Z,28.87
2023-02-12T20:35:43.386Z,26.60
2023-02-12T20:38:10.633Z,28.90
2023-02-12T20:40:37.960Z,32.07
2023-02-12T20:43:05.204Z,27.30
2023-02-12T20:45:32.470Z,29.67
2023-02-12T20:47:59.755Z,26.77
2023-02-12T20:50:28.287Z,26.57
2023-02-12T20:52:55.671Z,26.70
2023-02-12T20:58:06.158Z,27.60
2023-02-12T21:00:33.446Z,25.50
2023-02-12T21:03:00.754Z,24.90
2023-02-12T21:05:29.510Z,27.63
2023-02-12T21:07:56.790Z,28.23
2023-02-12T21:17:34.912Z,30.13
2023-02-12T21:20:02.167Z,25.30
2023-02-12T21:22:30.830Z,27.87
2023-02-12T21:24:58.050Z,25.20
2023-02-12T21:27:25.761Z,28.97
2023-02-12T21:29:52.992Z,24.90
2023-02-12T21:32:20.312Z,24.07
2023-02-12T21:34:48.914Z,27.13
2023-02-12T21:37:16.316Z,29.50
2023-02-12T21:39:44.991Z,29.93
2023-02-12T21:42:12.238Z,30.67
2023-02-12T21:44:39.526Z,33.63
2023-02-12T21:47:07.285Z,29.97
2023-02-12T21:49:34.801Z,29.07
2023-02-12T21:52:02.912Z,26.63
2023-02-12T21:54:30.396Z,19.33
2023-02-12T21:56:59.889Z,14.67
2023-02-12T21:59:29.526Z,30.33
2023-02-12T22:01:58.500Z,31.03
2023-02-12T22:04:25.960Z,29.07
2023-02-12T22:06:53.267Z,30.33
2023-02-12T22:09:22.004Z,20.60
2023-02-12T22:11:49.606Z,28.77
2023-02-12T22:14:18.851Z,29.67
2023-02-12T22:16:46.442Z,21.23
2023-02-12T22:19:14.036Z,26.60
2023-02-12T22:21:42.586Z,27.90
2023-02-12T22:24:13.174Z,26.80
2023-02-12T22:26:41.299Z,28.67
2023-02-12T22:29:09.621Z,30.03
2023-02-12T22:31:39.985Z,28.77
2023-02-12T22:34:08.863Z,27.40
2023-02-12T22:36:37.254Z,28.57
2023-02-12T22:39:05.089Z,32.00
2023-02-12T22:41:32.656Z,27.07
2023-02-12T22:44:00.733Z,28.73
2023-02-12T22:46:28.496Z,26.40
2023-02-12T22:48:57.449Z,29.77
2023-02-12T22:51:25.628Z,28.67
2023-02-12T22:53:53.337Z,28.00
2023-02-12T22:56:20.814Z,26.83
2023-02-12T22:58:48.392Z,29.20
2023-02-12T23:01:16.820Z,28.30
2023-02-12T23:03:44.615Z,26.57
2023-02-12T23:06:14.219Z,31.00
2023-02-12T23:08:41.944Z,26.20
2023-02-12T23:11:40.283Z,27.93
2023-02-12T23:14:22.964Z,27.90
2023-02-12T23:16:50.314Z,17.60
2023-02-12T23:19:17.654Z,29.90
2023-02-12T23:21:46.300Z,18.33
2023-02-12T23:24:14.337Z,31.17
2023-02-12T23:26:41.603Z,29.03
2023-02-12T23:32:05.225Z,27.03
2023-02-12T23:34:32.742Z,29.63
2023-02-12T23:37:01.599Z,28.97
2023-02-12T23:39:28.869Z,29.07
2023-02-12T23:41:56.496Z,27.57
2023-02-12T23:44:43.888Z,27.60
2023-02-12T23:50:59.885Z,33.73
2023-02-12T23:53:28.813Z,27.53
2023-02-12T23:55:56.072Z,25.33
2023-02-12T23:58:23.723Z,29.90
